sensor_id;sensor_type;location;lat;lon;timestamp;P1;durP1;ratioP1;P2;durP2;ratioP2
43124;SDS011;49182;50.788;7.318;2022-10-16T00:00:53;6.78;;;1.92;;
43124;SDS011;49182;50.788;7.318;2022-10-16T00:03:19;4.35;;;1.52;;
43124;SDS011;49182;50.788;7.318;2022-10-16T00:05:46;3.72;;;1.40;;
43124;SDS011;49182;50.788;7.318;2022-10-16T00:08:13;7.40;;;1.85;;
43124;SDS011;49182;50.788;7.318;2022-10-16T00:10:40;9.30;;;1.73;;
43124;SDS011;49182;50.788;7.318;2022-10-16T00:13:08;6.72;;;2.00;;
43124;SDS011;49182;50.788;7.318;2022-10-16T00:15:34;5.65;;;1.83;;
43124;SDS011;49182;50.788;7.318;2022-10-16T00:18:02;6.35;;;2.67;;
43124;SDS011;49182;50.788;7.318;2022-10-16T00:20:29;8.57;;;2.05;;
43124;SDS011;49182;50.788;7.318;2022-10-16T00:22:56;6.45;;;2.03;;
43124;SDS011;49182;50.788;7.318;2022-10-16T00:25:22;11.27;;;2.40;;
43124;SDS011;49182;50.788;7.318;2022-10-16T00:27:49;4.13;;;2.00;;
43124;SDS011;49182;50.788;7.318;2022-10-16T00:30:17;4.88;;;1.88;;
43124;SDS011;49182;50.788;7.318;2022-10-16T00:32:43;9.35;;;2.28;;
43124;SDS011;49182;50.788;7.318;2022-10-16T00:35:10;7.18;;;2.25;;
43124;SDS011;49182;50.788;7.318;2022-10-16T00:37:37;5.53;;;1.98;;
43124;SDS011;49182;50.788;7.318;2022-10-16T00:40:03;6.93;;;2.08;;
43124;SDS011;49182;50.788;7.318;2022-10-16T00:42:31;9.13;;;2.30;;
43124;SDS011;49182;50.788;7.318;2022-10-16T00:44:57;11.32;;;2.00;;
43124;SDS011;49182;50.788;7.318;2022-10-16T00:47:26;4.85;;;1.52;;
43124;SDS011;49182;50.788;7.318;2022-10-16T00:49:56;4.47;;;1.40;;
43124;SDS011;49182;50.788;7.318;2022-10-16T00:52:26;5.95;;;1.40;;
43124;SDS011;49182;50.788;7.318;2022-10-16T00:54:53;3.53;;;1.45;;
43124;SDS011;49182;50.788;7.318;2022-10-16T00:57:21;7.40;;;1.83;;
43124;SDS011;49182;50.788;7.318;2022-10-16T00:59:48;6.53;;;1.70;;
43124;SDS011;49182;50.788;7.318;2022-10-16T01:02:15;10.73;;;2.80;;
43124;SDS011;49182;50.788;7.318;2022-10-16T01:04:45;6.68;;;2.05;;
43124;SDS011;49182;50.788;7.318;2022-10-16T01:07:14;10.05;;;2.10;;
43124;SDS011;49182;50.788;7.318;2022-10-16T01:09:49;5.75;;;1.55;;
43124;SDS011;49182;50.788;7.318;2022-10-16T01:12:26;3.30;;;1.38;;
43124;SDS011;49182;50.788;7.318;2022-10-16T01:15:05;7.38;;;2.00;;
43124;SDS011;49182;50.788;7.318;2022-10-16T01:17:38;5.05;;;1.73;;
43124;SDS011;49182;50.788;7.318;2022-10-16T01:20:11;4.20;;;1.80;;
43124;SDS011;49182;50.788;7.318;2022-10-16T01:22:48;11.10;;;2.20;;
43124;SDS011;49182;50.788;7.318;2022-10-16T01:25:30;3.45;;;1.60;;
43124;SDS011;49182;50.788;7.318;2022-10-16T01:28:07;5.65;;;1.98;;
43124;SDS011;49182;50.788;7.318;2022-10-16T01:30:37;9.90;;;2.92;;
43124;SDS011;49182;50.788;7.318;2022-10-16T01:33:08;6.40;;;2.50;;
43124;SDS011;49182;50.788;7.318;2022-10-16T01:35:41;6.50;;;2.65;;
43124;SDS011;49182;50.788;7.318;2022-10-16T01:38:12;4.93;;;2.07;;
43124;SDS011;49182;50.788;7.318;2022-10-16T01:40:44;7.00;;;2.63;;
43124;SDS011;49182;50.788;7.318;2022-10-16T01:43:15;7.00;;;2.80;;
43124;SDS011;49182;50.788;7.318;2022-10-16T01:45:46;5.45;;;1.88;;
43124;SDS011;49182;50.788;7.318;2022-10-16T01:48:13;7.07;;;2.75;;
43124;SDS011;49182;50.788;7.318;2022-10-16T01:50:43;6.80;;;2.35;;
43124;SDS011;49182;50.788;7.318;2022-10-16T01:55:43;9.85;;;2.40;;
43124;SDS011;49182;50.788;7.318;2022-10-16T01:58:12;12.25;;;3.33;;
43124;SDS011;49182;50.788;7.318;2022-10-16T02:00:42;6.90;;;3.33;;
43124;SDS011;49182;50.788;7.318;2022-10-16T02:03:12;8.52;;;2.72;;
43124;SDS011;49182;50.788;7.318;2022-10-16T02:05:42;6.22;;;2.25;;
43124;SDS011;49182;50.788;7.318;2022-10-16T02:08:12;9.02;;;2.00;;
43124;SDS011;49182;50.788;7.318;2022-10-16T02:10:39;6.10;;;1.50;;
43124;SDS011;49182;50.788;7.318;2022-10-16T02:13:08;7.13;;;1.58;;
43124;SDS011;49182;50.788;7.318;2022-10-16T02:15:40;8.32;;;1.83;;
43124;SDS011;49182;50.788;7.318;2022-10-16T02:18:06;8.95;;;2.60;;
43124;SDS011;49182;50.788;7.318;2022-10-16T02:20:36;6.53;;;2.30;;
43124;SDS011;49182;50.788;7.318;2022-10-16T02:23:11;8.05;;;2.72;;
43124;SDS011;49182;50.788;7.318;2022-10-16T02:25:41;10.05;;;1.50;;
43124;SDS011;49182;50.788;7.318;2022-10-16T02:28:13;10.38;;;1.80;;
43124;SDS011;49182;50.788;7.318;2022-10-16T02:30:46;9.82;;;2.33;;
43124;SDS011;49182;50.788;7.318;2022-10-16T02:33:16;12.63;;;3.42;;
43124;SDS011;49182;50.788;7.318;2022-10-16T02:35:46;9.32;;;3.20;;
43124;SDS011;49182;50.788;7.318;2022-10-16T02:38:14;9.50;;;3.42;;
43124;SDS011;49182;50.788;7.318;2022-10-16T02:40:42;11.02;;;2.03;;
43124;SDS011;49182;50.788;7.318;2022-10-16T02:43:10;5.88;;;2.08;;
43124;SDS011;49182;50.788;7.318;2022-10-16T02:45:37;2.75;;;1.17;;
43124;SDS011;49182;50.788;7.318;2022-10-16T02:48:05;5.78;;;1.88;;
43124;SDS011;49182;50.788;7.318;2022-10-16T02:50:32;3.42;;;1.42;;
43124;SDS011;49182;50.788;7.318;2022-10-16T02:52:59;3.30;;;1.40;;
43124;SDS011;49182;50.788;7.318;2022-10-16T02:55:25;10.35;;;1.70;;
43124;SDS011;49182;50.788;7.318;2022-10-16T02:57:52;5.63;;;1.70;;
43124;SDS011;49182;50.788;7.318;2022-10-16T03:00:19;4.82;;;1.80;;
43124;SDS011;49182;50.788;7.318;2022-10-16T03:02:46;5.47;;;1.80;;
43124;SDS011;49182;50.788;7.318;2022-10-16T03:05:14;6.05;;;1.95;;
43124;SDS011;49182;50.788;7.318;2022-10-16T03:07:41;7.40;;;1.67;;
43124;SDS011;49182;50.788;7.318;2022-10-16T03:10:08;7.32;;;1.90;;
43124;SDS011;49182;50.788;7.318;2022-10-16T03:12:35;6.20;;;1.90;;
43124;SDS011;49182;50.788;7.318;2022-10-16T03:15:02;4.70;;;1.70;;
43124;SDS011;49182;50.788;7.318;2022-10-16T03:17:29;4.43;;;1.65;;
43124;SDS011;49182;50.788;7.318;2022-10-16T03:19:55;6.40;;;1.50;;
43124;SDS011;49182;50.788;7.318;2022-10-16T03:22:23;7.10;;;1.50;;
43124;SDS011;49182;50.788;7.318;2022-10-16T03:24:50;11.73;;;1.92;;
43124;SDS011;49182;50.788;7.318;2022-10-16T03:27:17;7.25;;;1.60;;
43124;SDS011;49182;50.788;7.318;2022-10-16T03:29:43;3.88;;;1.52;;
43124;SDS011;49182;50.788;7.318;2022-10-16T03:32:10;3.90;;;1.38;;
43124;SDS011;49182;50.788;7.318;2022-10-16T03:34:36;3.92;;;1.50;;
43124;SDS011;49182;50.788;7.318;2022-10-16T03:37:03;5.72;;;1.90;;
43124;SDS011;49182;50.788;7.318;2022-10-16T03:39:31;5.95;;;1.20;;
43124;SDS011;49182;50.788;7.318;2022-10-16T03:41:58;6.45;;;1.48;;
43124;SDS011;49182;50.788;7.318;2022-10-16T03:44:24;4.53;;;1.30;;
43124;SDS011;49182;50.788;7.318;2022-10-16T03:46:51;7.68;;;2.15;;
43124;SDS011;49182;50.788;7.318;2022-10-16T03:49:18;10.00;;;1.98;;
43124;SDS011;49182;50.788;7.318;2022-10-16T03:51:44;10.15;;;1.40;;
43124;SDS011;49182;50.788;7.318;2022-10-16T03:54:11;7.00;;;1.38;;
43124;SDS011;49182;50.788;7.318;2022-10-16T03:56:39;11.38;;;1.52;;
43124;SDS011;49182;50.788;7.318;2022-10-16T03:59:05;4.32;;;1.40;;
43124;SDS011;49182;50.788;7.318;2022-10-16T04:01:32;7.03;;;2.00;;
43124;SDS011;49182;50.788;7.318;2022-10-16T04:03:58;8.00;;;1.55;;
43124;SDS011;49182;50.788;7.318;2022-10-16T04:06:25;8.20;;;1.52;;
43124;SDS011;49182;50.788;7.318;2022-10-16T04:08:52;5.05;;;1.50;;
43124;SDS011;49182;50.788;7.318;2022-10-16T04:11:18;10.18;;;1.55;;
43124;SDS011;49182;50.788;7.318;2022-10-16T04:13:46;6.13;;;1.60;;
43124;SDS011;49182;50.788;7.318;2022-10-16T04:16:13;9.02;;;1.60;;
43124;SDS011;49182;50.788;7.318;2022-10-16T04:18:40;7.38;;;1.73;;
43124;SDS011;49182;50.788;7.318;2022-10-16T04:21:06;9.18;;;1.60;;
43124;SDS011;49182;50.788;7.318;2022-10-16T04:23:33;5.35;;;1.50;;
43124;SDS011;49182;50.788;7.318;2022-10-16T04:26:00;6.07;;;1.33;;
43124;SDS011;49182;50.788;7.318;2022-10-16T04:28:27;4.90;;;1.27;;
43124;SDS011;49182;50.788;7.318;2022-10-16T04:30:55;6.80;;;1.27;;
43124;SDS011;49182;50.788;7.318;2022-10-16T04:33:21;4.88;;;1.50;;
43124;SDS011;49182;50.788;7.318;2022-10-16T04:35:48;6.05;;;1.50;;
43124;SDS011;49182;50.788;7.318;2022-10-16T04:38:15;7.75;;;1.40;;
43124;SDS011;49182;50.788;7.318;2022-10-16T04:40:41;7.35;;;1.40;;
43124;SDS011;49182;50.788;7.318;2022-10-16T04:43:08;6.10;;;1.45;;
43124;SDS011;49182;50.788;7.318;2022-10-16T04:45:35;3.65;;;1.50;;
43124;SDS011;49182;50.788;7.318;2022-10-16T04:48:03;4.53;;;1.35;;
43124;SDS011;49182;50.788;7.318;2022-10-16T04:50:30;3.00;;;1.20;;
43124;SDS011;49182;50.788;7.318;2022-10-16T04:53:04;4.63;;;1.33;;
43124;SDS011;49182;50.788;7.318;2022-10-16T04:55:30;9.98;;;1.40;;
43124;SDS011;49182;50.788;7.318;2022-10-16T04:57:57;2.63;;;1.17;;
43124;SDS011;49182;50.788;7.318;2022-10-16T05:00:23;6.15;;;1.60;;
43124;SDS011;49182;50.788;7.318;2022-10-16T05:02:50;4.75;;;1.40;;
43124;SDS011;49182;50.788;7.318;2022-10-16T05:05:18;6.07;;;1.48;;
43124;SDS011;49182;50.788;7.318;2022-10-16T05:07:45;3.30;;;1.35;;
43124;SDS011;49182;50.788;7.318;2022-10-16T05:10:11;3.75;;;1.38;;
43124;SDS011;49182;50.788;7.318;2022-10-16T05:12:38;4.47;;;1.60;;
43124;SDS011;49182;50.788;7.318;2022-10-16T05:15:05;5.88;;;1.40;;
43124;SDS011;49182;50.788;7.318;2022-10-16T05:17:32;4.63;;;1.52;;
43124;SDS011;49182;50.788;7.318;2022-10-16T05:19:59;18.50;;;7.70;;
43124;SDS011;49182;50.788;7.318;2022-10-16T05:22:27;44.22;;;20.90;;
43124;SDS011;49182;50.788;7.318;2022-10-16T05:24:53;20.05;;;8.77;;
43124;SDS011;49182;50.788;7.318;2022-10-16T05:27:20;7.30;;;2.33;;
43124;SDS011;49182;50.788;7.318;2022-10-16T05:29:47;4.50;;;1.30;;
43124;SDS011;49182;50.788;7.318;2022-10-16T05:32:14;6.75;;;1.30;;
43124;SDS011;49182;50.788;7.318;2022-10-16T05:34:42;10.02;;;1.95;;
43124;SDS011;49182;50.788;7.318;2022-10-16T05:37:08;6.22;;;1.30;;
43124;SDS011;49182;50.788;7.318;2022-10-16T05:39:37;2.63;;;1.10;;
43124;SDS011;49182;50.788;7.318;2022-10-16T05:42:04;7.60;;;1.70;;
43124;SDS011;49182;50.788;7.318;2022-10-16T05:44:30;10.20;;;1.60;;
43124;SDS011;49182;50.788;7.318;2022-10-16T05:46:57;7.72;;;1.80;;
43124;SDS011;49182;50.788;7.318;2022-10-16T05:49:24;8.90;;;1.70;;
43124;SDS011;49182;50.788;7.318;2022-10-16T05:51:50;5.65;;;1.38;;
43124;SDS011;49182;50.788;7.318;2022-10-16T05:54:17;9.13;;;1.40;;
43124;SDS011;49182;50.788;7.318;2022-10-16T05:56:45;11.57;;;1.58;;
43124;SDS011;49182;50.788;7.318;2022-10-16T05:59:11;6.78;;;1.80;;
43124;SDS011;49182;50.788;7.318;2022-10-16T06:01:38;8.02;;;1.60;;
43124;SDS011;49182;50.788;7.318;2022-10-16T06:04:05;6.20;;;1.48;;
43124;SDS011;49182;50.788;7.318;2022-10-16T06:06:32;10.13;;;1.60;;
43124;SDS011;49182;50.788;7.318;2022-10-16T06:08:58;3.17;;;1.17;;
43124;SDS011;49182;50.788;7.318;2022-10-16T06:11:25;6.53;;;1.40;;
43124;SDS011;49182;50.788;7.318;2022-10-16T06:13:55;2.83;;;1.05;;
43124;SDS011;49182;50.788;7.318;2022-10-16T06:16:24;6.72;;;1.65;;
43124;SDS011;49182;50.788;7.318;2022-10-16T06:18:51;7.45;;;1.42;;
43124;SDS011;49182;50.788;7.318;2022-10-16T06:21:19;7.03;;;1.50;;
43124;SDS011;49182;50.788;7.318;2022-10-16T06:23:48;4.68;;;1.15;;
43124;SDS011;49182;50.788;7.318;2022-10-16T06:26:15;5.88;;;1.17;;
43124;SDS011;49182;50.788;7.318;2022-10-16T06:28:43;3.58;;;1.60;;
43124;SDS011;49182;50.788;7.318;2022-10-16T06:31:12;10.45;;;2.08;;
43124;SDS011;49182;50.788;7.318;2022-10-16T06:33:39;8.00;;;1.98;;
43124;SDS011;49182;50.788;7.318;2022-10-16T06:36:06;5.75;;;1.92;;
43124;SDS011;49182;50.788;7.318;2022-10-16T06:38:34;12.55;;;1.92;;
43124;SDS011;49182;50.788;7.318;2022-10-16T06:41:02;8.23;;;1.55;;
43124;SDS011;49182;50.788;7.318;2022-10-16T06:43:29;9.65;;;1.98;;
43124;SDS011;49182;50.788;7.318;2022-10-16T06:45:56;6.78;;;1.60;;
43124;SDS011;49182;50.788;7.318;2022-10-16T06:48:25;10.20;;;1.60;;
43124;SDS011;49182;50.788;7.318;2022-10-16T06:50:56;10.68;;;1.50;;
43124;SDS011;49182;50.788;7.318;2022-10-16T06:53:23;4.97;;;1.58;;
43124;SDS011;49182;50.788;7.318;2022-10-16T06:55:50;3.85;;;1.40;;
43124;SDS011;49182;50.788;7.318;2022-10-16T06:58:17;4.22;;;1.40;;
43124;SDS011;49182;50.788;7.318;2022-10-16T07:00:43;6.18;;;1.73;;
43124;SDS011;49182;50.788;7.318;2022-10-16T07:03:10;8.02;;;1.65;;
43124;SDS011;49182;50.788;7.318;2022-10-16T07:05:38;4.85;;;1.60;;
43124;SDS011;49182;50.788;7.318;2022-10-16T07:08:05;10.85;;;1.80;;
43124;SDS011;49182;50.788;7.318;2022-10-16T07:10:32;7.72;;;1.98;;
43124;SDS011;49182;50.788;7.318;2022-10-16T07:12:59;6.88;;;2.00;;
43124;SDS011;49182;50.788;7.318;2022-10-16T07:15:26;4.97;;;2.00;;
43124;SDS011;49182;50.788;7.318;2022-10-16T07:17:53;6.45;;;2.70;;
43124;SDS011;49182;50.788;7.318;2022-10-16T07:20:19;6.93;;;2.60;;
43124;SDS011;49182;50.788;7.318;2022-10-16T07:22:47;8.85;;;2.88;;
43124;SDS011;49182;50.788;7.318;2022-10-16T07:25:14;9.50;;;1.70;;
43124;SDS011;49182;50.788;7.318;2022-10-16T07:27:41;6.35;;;1.50;;
43124;SDS011;49182;50.788;7.318;2022-10-16T07:30:07;6.30;;;1.70;;
43124;SDS011;49182;50.788;7.318;2022-10-16T07:32:35;6.85;;;1.65;;
43124;SDS011;49182;50.788;7.318;2022-10-16T07:35:01;6.30;;;1.67;;
43124;SDS011;49182;50.788;7.318;2022-10-16T07:37:28;4.90;;;1.50;;
43124;SDS011;49182;50.788;7.318;2022-10-16T07:39:56;5.40;;;1.60;;
43124;SDS011;49182;50.788;7.318;2022-10-16T07:42:23;5.00;;;1.77;;
43124;SDS011;49182;50.788;7.318;2022-10-16T07:44:49;6.80;;;1.67;;
43124;SDS011;49182;50.788;7.318;2022-10-16T07:47:16;6.35;;;2.10;;
43124;SDS011;49182;50.788;7.318;2022-10-16T07:49:42;9.35;;;2.40;;
43124;SDS011;49182;50.788;7.318;2022-10-16T07:52:09;10.07;;;2.83;;
43124;SDS011;49182;50.788;7.318;2022-10-16T07:54:35;8.55;;;2.83;;
43124;SDS011;49182;50.788;7.318;2022-10-16T07:57:04;10.55;;;2.53;;
43124;SDS011;49182;50.788;7.318;2022-10-16T07:59:30;15.13;;;3.28;;
43124;SDS011;49182;50.788;7.318;2022-10-16T08:01:57;9.73;;;4.70;;
43124;SDS011;49182;50.788;7.318;2022-10-16T08:04:23;16.73;;;9.35;;
43124;SDS011;49182;50.788;7.318;2022-10-16T08:06:50;16.77;;;9.88;;
43124;SDS011;49182;50.788;7.318;2022-10-16T08:09:16;12.00;;;4.85;;
43124;SDS011;49182;50.788;7.318;2022-10-16T08:11:43;5.15;;;2.47;;
43124;SDS011;49182;50.788;7.318;2022-10-16T08:14:11;4.72;;;2.03;;
43124;SDS011;49182;50.788;7.318;2022-10-16T08:16:38;6.05;;;1.60;;
43124;SDS011;49182;50.788;7.318;2022-10-16T08:19:04;8.02;;;2.00;;
43124;SDS011;49182;50.788;7.318;2022-10-16T08:21:31;5.57;;;1.95;;
43124;SDS011;49182;50.788;7.318;2022-10-16T08:23:57;5.05;;;2.65;;
43124;SDS011;49182;50.788;7.318;2022-10-16T08:26:24;7.72;;;2.63;;
43124;SDS011;49182;50.788;7.318;2022-10-16T08:28:52;6.25;;;2.80;;
43124;SDS011;49182;50.788;7.318;2022-10-16T08:31:20;6.70;;;2.42;;
43124;SDS011;49182;50.788;7.318;2022-10-16T08:33:47;4.53;;;2.13;;
43124;SDS011;49182;50.788;7.318;2022-10-16T08:36:14;5.05;;;2.00;;
43124;SDS011;49182;50.788;7.318;2022-10-16T08:38:42;8.38;;;2.03;;
43124;SDS011;49182;50.788;7.318;2022-10-16T08:41:14;3.63;;;1.83;;
43124;SDS011;49182;50.788;7.318;2022-10-16T08:44:00;4.70;;;1.58;;
43124;SDS011;49182;50.788;7.318;2022-10-16T08:46:41;3.95;;;1.60;;
43124;SDS011;49182;50.788;7.318;2022-10-16T08:49:16;3.65;;;1.30;;
43124;SDS011;49182;50.788;7.318;2022-10-16T08:51:43;3.88;;;1.58;;
43124;SDS011;49182;50.788;7.318;2022-10-16T08:54:15;5.35;;;1.50;;
43124;SDS011;49182;50.788;7.318;2022-10-16T08:56:49;2.70;;;1.30;;
43124;SDS011;49182;50.788;7.318;2022-10-16T08:59:16;3.35;;;1.40;;
43124;SDS011;49182;50.788;7.318;2022-10-16T09:01:45;5.30;;;1.50;;
43124;SDS011;49182;50.788;7.318;2022-10-16T09:04:29;2.78;;;1.40;;
43124;SDS011;49182;50.788;7.318;2022-10-16T09:07:24;3.08;;;1.10;;
43124;SDS011;49182;50.788;7.318;2022-10-16T09:10:09;3.03;;;1.20;;
43124;SDS011;49182;50.788;7.318;2022-10-16T09:12:48;4.97;;;1.42;;
43124;SDS011;49182;50.788;7.318;2022-10-16T09:15:23;4.18;;;1.20;;
43124;SDS011;49182;50.788;7.318;2022-10-16T09:18:01;2.67;;;1.00;;
43124;SDS011;49182;50.788;7.318;2022-10-16T09:20:35;3.38;;;1.17;;
43124;SDS011;49182;50.788;7.318;2022-10-16T09:23:15;2.95;;;0.93;;
43124;SDS011;49182;50.788;7.318;2022-10-16T09:25:45;3.88;;;1.00;;
43124;SDS011;49182;50.788;7.318;2022-10-16T09:28:13;3.15;;;0.70;;
43124;SDS011;49182;50.788;7.318;2022-10-16T09:30:40;4.72;;;0.88;;
43124;SDS011;49182;50.788;7.318;2022-10-16T09:33:09;4.32;;;1.27;;
43124;SDS011;49182;50.788;7.318;2022-10-16T09:35:37;3.20;;;0.60;;
43124;SDS011;49182;50.788;7.318;2022-10-16T09:38:06;2.05;;;0.50;;
43124;SDS011;49182;50.788;7.318;2022-10-16T09:40:34;1.30;;;0.70;;
43124;SDS011;49182;50.788;7.318;2022-10-16T09:43:05;2.95;;;0.90;;
43124;SDS011;49182;50.788;7.318;2022-10-16T09:45:52;3.35;;;0.90;;
43124;SDS011;49182;50.788;7.318;2022-10-16T09:48:21;2.88;;;0.88;;
43124;SDS011;49182;50.788;7.318;2022-10-16T09:50:55;2.53;;;0.70;;
43124;SDS011;49182;50.788;7.318;2022-10-16T09:53:22;5.20;;;1.30;;
43124;SDS011;49182;50.788;7.318;2022-10-16T09:55:48;3.75;;;1.08;;
43124;SDS011;49182;50.788;7.318;2022-10-16T09:58:16;1.67;;;0.75;;
43124;SDS011;49182;50.788;7.318;2022-10-16T10:00:48;1.45;;;0.63;;
43124;SDS011;49182;50.788;7.318;2022-10-16T10:03:17;5.60;;;1.40;;
43124;SDS011;49182;50.788;7.318;2022-10-16T10:05:59;6.63;;;1.02;;
43124;SDS011;49182;50.788;7.318;2022-10-16T10:08:27;2.45;;;0.88;;
43124;SDS011;49182;50.788;7.318;2022-10-16T10:10:54;3.00;;;0.45;;
43124;SDS011;49182;50.788;7.318;2022-10-16T10:13:21;3.05;;;0.90;;
43124;SDS011;49182;50.788;7.318;2022-10-16T10:15:50;1.85;;;0.60;;
43124;SDS011;49182;50.788;7.318;2022-10-16T10:18:18;1.95;;;0.60;;
43124;SDS011;49182;50.788;7.318;2022-10-16T10:20:56;2.05;;;0.52;;
43124;SDS011;49182;50.788;7.318;2022-10-16T10:23:25;1.08;;;0.50;;
43124;SDS011;49182;50.788;7.318;2022-10-16T10:25:53;1.85;;;0.60;;
43124;SDS011;49182;50.788;7.318;2022-10-16T10:31:20;1.75;;;0.70;;
43124;SDS011;49182;50.788;7.318;2022-10-16T10:33:53;7.25;;;0.50;;
43124;SDS011;49182;50.788;7.318;2022-10-16T10:38:58;0.82;;;0.40;;
43124;SDS011;49182;50.788;7.318;2022-10-16T10:41:34;1.85;;;0.40;;
43124;SDS011;49182;50.788;7.318;2022-10-16T10:44:24;1.25;;;0.40;;
43124;SDS011;49182;50.788;7.318;2022-10-16T10:47:01;4.75;;;0.47;;
43124;SDS011;49182;50.788;7.318;2022-10-16T10:49:43;1.77;;;0.40;;
43124;SDS011;49182;50.788;7.318;2022-10-16T10:55:10;1.15;;;0.40;;
43124;SDS011;49182;50.788;7.318;2022-10-16T10:57:44;1.40;;;0.40;;
43124;SDS011;49182;50.788;7.318;2022-10-16T11:00:27;1.58;;;0.50;;
43124;SDS011;49182;50.788;7.318;2022-10-16T11:03:01;5.90;;;0.40;;
43124;SDS011;49182;50.788;7.318;2022-10-16T11:05:40;1.15;;;0.40;;
43124;SDS011;49182;50.788;7.318;2022-10-16T11:08:12;4.43;;;2.10;;
43124;SDS011;49182;50.788;7.318;2022-10-16T11:10:45;2.88;;;1.30;;
43124;SDS011;49182;50.788;7.318;2022-10-16T11:13:19;1.70;;;0.60;;
43124;SDS011;49182;50.788;7.318;2022-10-16T11:15:53;0.73;;;0.40;;
43124;SDS011;49182;50.788;7.318;2022-10-16T11:18:24;1.35;;;0.40;;
43124;SDS011;49182;50.788;7.318;2022-10-16T11:20:57;1.20;;;0.60;;
43124;SDS011;49182;50.788;7.318;2022-10-16T11:23:30;2.47;;;1.00;;
43124;SDS011;49182;50.788;7.318;2022-10-16T11:26:05;4.80;;;0.50;;
43124;SDS011;49182;50.788;7.318;2022-10-16T11:28:41;0.82;;;0.30;;
43124;SDS011;49182;50.788;7.318;2022-10-16T11:31:15;1.40;;;0.57;;
43124;SDS011;49182;50.788;7.318;2022-10-16T11:36:14;2.58;;;1.15;;
43124;SDS011;49182;50.788;7.318;2022-10-16T11:38:48;2.08;;;0.40;;
43124;SDS011;49182;50.788;7.318;2022-10-16T11:41:21;3.38;;;0.60;;
43124;SDS011;49182;50.788;7.318;2022-10-16T11:43:57;2.08;;;0.65;;
43124;SDS011;49182;50.788;7.318;2022-10-16T11:46:33;1.40;;;0.50;;
43124;SDS011;49182;50.788;7.318;2022-10-16T11:49:22;2.08;;;0.50;;
43124;SDS011;49182;50.788;7.318;2022-10-16T11:51:54;1.13;;;0.52;;
43124;SDS011;49182;50.788;7.318;2022-10-16T11:54:28;2.78;;;0.73;;
43124;SDS011;49182;50.788;7.318;2022-10-16T11:57:00;1.08;;;0.45;;
43124;SDS011;49182;50.788;7.318;2022-10-16T11:59:36;3.53;;;1.17;;
43124;SDS011;49182;50.788;7.318;2022-10-16T12:02:16;2.90;;;0.50;;
43124;SDS011;49182;50.788;7.318;2022-10-16T12:04:59;2.28;;;0.45;;
43124;SDS011;49182;50.788;7.318;2022-10-16T12:07:39;0.60;;;0.22;;
43124;SDS011;49182;50.788;7.318;2022-10-16T12:10:19;0.90;;;0.40;;
43124;SDS011;49182;50.788;7.318;2022-10-16T12:12:53;3.83;;;0.40;;
43124;SDS011;49182;50.788;7.318;2022-10-16T12:15:21;2.00;;;0.43;;
43124;SDS011;49182;50.788;7.318;2022-10-16T12:18:20;2.53;;;0.40;;
43124;SDS011;49182;50.788;7.318;2022-10-16T12:20:53;1.75;;;0.50;;
43124;SDS011;49182;50.788;7.318;2022-10-16T12:23:21;1.52;;;0.50;;
43124;SDS011;49182;50.788;7.318;2022-10-16T12:25:54;2.67;;;0.45;;
43124;SDS011;49182;50.788;7.318;2022-10-16T12:28:22;1.88;;;0.40;;
43124;SDS011;49182;50.788;7.318;2022-10-16T12:33:21;3.92;;;0.40;;
43124;SDS011;49182;50.788;7.318;2022-10-16T12:35:49;2.55;;;0.35;;
43124;SDS011;49182;50.788;7.318;2022-10-16T12:38:18;1.20;;;0.30;;
43124;SDS011;49182;50.788;7.318;2022-10-16T12:40:47;2.05;;;0.60;;
43124;SDS011;49182;50.788;7.318;2022-10-16T12:43:28;2.70;;;0.38;;
43124;SDS011;49182;50.788;7.318;2022-10-16T12:46:04;0.93;;;0.38;;
43124;SDS011;49182;50.788;7.318;2022-10-16T12:48:46;1.27;;;0.50;;
43124;SDS011;49182;50.788;7.318;2022-10-16T12:51:22;1.13;;;0.40;;
43124;SDS011;49182;50.788;7.318;2022-10-16T12:56:43;1.13;;;0.47;;
43124;SDS011;49182;50.788;7.318;2022-10-16T12:59:21;3.25;;;0.50;;
43124;SDS011;49182;50.788;7.318;2022-10-16T13:02:03;2.10;;;0.40;;
43124;SDS011;49182;50.788;7.318;2022-10-16T13:04:45;2.47;;;0.50;;
43124;SDS011;49182;50.788;7.318;2022-10-16T13:07:27;1.85;;;0.40;;
43124;SDS011;49182;50.788;7.318;2022-10-16T13:10:09;1.00;;;0.40;;
43124;SDS011;49182;50.788;7.318;2022-10-16T13:12:51;1.35;;;0.20;;
43124;SDS011;49182;50.788;7.318;2022-10-16T13:15:38;3.47;;;0.50;;
43124;SDS011;49182;50.788;7.318;2022-10-16T13:18:15;1.48;;;0.35;;
43124;SDS011;49182;50.788;7.318;2022-10-16T13:20:55;4.07;;;0.50;;
43124;SDS011;49182;50.788;7.318;2022-10-16T13:23:31;1.15;;;0.40;;
43124;SDS011;49182;50.788;7.318;2022-10-16T13:26:09;1.88;;;0.50;;
43124;SDS011;49182;50.788;7.318;2022-10-16T13:28:45;3.72;;;0.50;;
43124;SDS011;49182;50.788;7.318;2022-10-16T13:31:14;0.73;;;0.50;;
43124;SDS011;49182;50.788;7.318;2022-10-16T13:33:45;2.10;;;0.70;;
43124;SDS011;49182;50.788;7.318;2022-10-16T13:36:20;0.88;;;0.35;;
43124;SDS011;49182;50.788;7.318;2022-10-16T13:38:48;4.18;;;0.50;;
43124;SDS011;49182;50.788;7.318;2022-10-16T13:41:15;1.98;;;0.60;;
43124;SDS011;49182;50.788;7.318;2022-10-16T13:43:44;1.40;;;0.43;;
43124;SDS011;49182;50.788;7.318;2022-10-16T13:48:42;1.27;;;0.50;;
43124;SDS011;49182;50.788;7.318;2022-10-16T13:51:12;1.45;;;0.45;;
43124;SDS011;49182;50.788;7.318;2022-10-16T13:53:40;3.28;;;0.43;;
43124;SDS011;49182;50.788;7.318;2022-10-16T13:56:10;5.68;;;0.70;;
43124;SDS011;49182;50.788;7.318;2022-10-16T13:58:38;1.10;;;0.40;;
43124;SDS011;49182;50.788;7.318;2022-10-16T14:01:14;2.50;;;0.50;;
43124;SDS011;49182;50.788;7.318;2022-10-16T14:03:43;2.47;;;0.60;;
43124;SDS011;49182;50.788;7.318;2022-10-16T14:06:11;1.58;;;0.47;;
43124;SDS011;49182;50.788;7.318;2022-10-16T14:08:40;2.25;;;0.60;;
43124;SDS011;49182;50.788;7.318;2022-10-16T14:11:09;1.48;;;0.60;;
43124;SDS011;49182;50.788;7.318;2022-10-16T14:13:37;1.88;;;0.60;;
43124;SDS011;49182;50.788;7.318;2022-10-16T14:16:08;2.47;;;0.50;;
43124;SDS011;49182;50.788;7.318;2022-10-16T14:18:37;1.85;;;0.50;;
43124;SDS011;49182;50.788;7.318;2022-10-16T14:21:06;2.10;;;0.50;;
43124;SDS011;49182;50.788;7.318;2022-10-16T14:23:38;4.45;;;0.55;;
43124;SDS011;49182;50.788;7.318;2022-10-16T14:26:13;3.05;;;0.60;;
43124;SDS011;49182;50.788;7.318;2022-10-16T14:28:46;1.45;;;0.50;;
43124;SDS011;49182;50.788;7.318;2022-10-16T14:31:25;0.70;;;0.45;;
43124;SDS011;49182;50.788;7.318;2022-10-16T14:33:53;3.50;;;0.40;;
43124;SDS011;49182;50.788;7.318;2022-10-16T14:36:20;2.22;;;0.60;;
43124;SDS011;49182;50.788;7.318;2022-10-16T14:38:49;2.55;;;0.40;;
43124;SDS011;49182;50.788;7.318;2022-10-16T14:41:23;4.47;;;0.85;;
43124;SDS011;49182;50.788;7.318;2022-10-16T14:43:51;3.47;;;0.95;;
43124;SDS011;49182;50.788;7.318;2022-10-16T14:46:21;1.92;;;0.47;;
43124;SDS011;49182;50.788;7.318;2022-10-16T14:48:57;1.38;;;0.43;;
43124;SDS011;49182;50.788;7.318;2022-10-16T14:51:27;2.03;;;0.55;;
43124;SDS011;49182;50.788;7.318;2022-10-16T14:53:53;2.17;;;0.52;;
43124;SDS011;49182;50.788;7.318;2022-10-16T14:56:27;2.67;;;0.50;;
43124;SDS011;49182;50.788;7.318;2022-10-16T14:58:58;2.92;;;0.60;;
43124;SDS011;49182;50.788;7.318;2022-10-16T15:01:26;1.48;;;0.50;;
43124;SDS011;49182;50.788;7.318;2022-10-16T15:03:53;5.35;;;1.52;;
43124;SDS011;49182;50.788;7.318;2022-10-16T15:06:21;2.45;;;0.52;;
43124;SDS011;49182;50.788;7.318;2022-10-16T15:08:48;4.10;;;0.70;;
43124;SDS011;49182;50.788;7.318;2022-10-16T15:11:15;1.83;;;0.60;;
43124;SDS011;49182;50.788;7.318;2022-10-16T15:13:44;3.28;;;0.60;;
43124;SDS011;49182;50.788;7.318;2022-10-16T15:16:12;2.42;;;0.68;;
43124;SDS011;49182;50.788;7.318;2022-10-16T15:18:39;3.38;;;0.63;;
43124;SDS011;49182;50.788;7.318;2022-10-16T15:21:06;1.60;;;0.60;;
43124;SDS011;49182;50.788;7.318;2022-10-16T15:23:35;5.70;;;0.50;;